createdAt,value
2022-11-24T00:01:06.182Z,91.40
2022-11-24T00:03:34.794Z,91.80
2022-11-24T00:06:07.696Z,91.70
2022-11-24T00:08:38.092Z,91.70
2022-11-24T00:11:07.524Z,91.70
2022-11-24T00:13:36.699Z,91.80
2022-11-24T00:16:09.656Z,91.90
2022-11-24T00:18:38.488Z,92.00
2022-11-24T00:21:07.211Z,92.10
2022-11-24T00:23:36.338Z,92.10
2022-11-24T00:26:07.500Z,92.10
2022-11-24T00:28:37.009Z,91.90
2022-11-24T00:31:06.307Z,92.00
2022-11-24T00:33:34.879Z,92.10
2022-11-24T00:36:03.381Z,92.10
2022-11-24T00:38:31.840Z,92.00
2022-11-24T00:41:00.298Z,91.90
2022-11-24T00:43:30.231Z,91.70
2022-11-24T00:45:58.983Z,91.70
2022-11-24T00:48:27.721Z,91.60
2022-11-24T00:51:00.034Z,91.60
2022-11-24T00:53:29.078Z,91.60
2022-11-24T00:55:57.615Z,91.70
2022-11-24T00:58:26.831Z,91.60
2022-11-24T01:00:56.854Z,91.70
2022-11-24T01:03:25.464Z,91.70
2022-11-24T01:05:53.962Z,91.80
2022-11-24T01:08:22.391Z,91.70
2022-11-24T01:10:51.078Z,91.70
2022-11-24T01:13:19.639Z,91.70
2022-11-24T01:15:48.078Z,91.70
2022-11-24T01:18:18.075Z,91.70
2022-11-24T01:21:09.820Z,91.70
2022-11-24T01:23:39.422Z,91.70
2022-11-24T01:26:08.364Z,91.70
2022-11-24T01:28:40.548Z,91.60
2022-11-24T01:31:11.243Z,91.60
2022-11-24T01:33:41.196Z,91.50
2022-11-24T01:36:09.671Z,91.50
2022-11-24T01:38:38.428Z,91.50
2022-11-24T01:41:08.093Z,91.60
2022-11-24T01:43:36.673Z,91.70
2022-11-24T01:46:07.685Z,91.70
2022-11-24T01:48:39.031Z,91.80
2022-11-24T01:51:11.130Z,91.70
2022-11-24T01:53:41.888Z,91.70
2022-11-24T01:56:11.436Z,91.70
2022-11-24T01:58:41.412Z,91.80
2022-11-24T02:01:10.301Z,91.80
2022-11-24T02:03:41.267Z,91.90
2022-11-24T02:06:12.804Z,91.90
2022-11-24T02:08:44.041Z,92.00
2022-11-24T02:11:12.695Z,92.00
2022-11-24T02:13:42.475Z,92.00
2022-11-24T02:16:12.706Z,91.90
2022-11-24T02:18:41.589Z,91.90
2022-11-24T02:21:12.319Z,92.00
2022-11-24T02:23:45.339Z,92.10
2022-11-24T02:26:22.240Z,92.10
2022-11-24T02:28:52.382Z,92.30
2022-11-24T02:31:21.216Z,92.40
2022-11-24T02:33:50.305Z,92.50
2022-11-24T02:36:18.839Z,92.50
2022-11-24T02:38:47.437Z,92.60
2022-11-24T02:41:17.748Z,92.60
2022-11-24T02:43:48.661Z,92.70
2022-11-24T02:46:37.282Z,92.70
2022-11-24T02:49:06.038Z,92.80
2022-11-24T02:51:35.285Z,92.60
2022-11-24T02:54:03.891Z,92.70
2022-11-24T02:56:32.456Z,92.70
2022-11-24T02:59:00.921Z,92.80
2022-11-24T03:01:29.566Z,92.80
2022-11-24T03:03:59.569Z,92.80
2022-11-24T03:06:28.283Z,92.80
2022-11-24T03:08:56.834Z,92.90
2022-11-24T03:11:25.493Z,92.90
2022-11-24T03:13:54.077Z,93.00
2022-11-24T03:16:22.605Z,93.00
2022-11-24T03:18:52.181Z,93.10
2022-11-24T03:21:22.397Z,93.20
2022-11-24T03:23:51.001Z,93.20
2022-11-24T03:26:20.534Z,93.30
2022-11-24T03:28:49.025Z,93.50
2022-11-24T03:31:17.708Z,93.60
2022-11-24T03:33:46.376Z,93.60
2022-11-24T03:36:15.203Z,93.60
2022-11-24T03:38:45.282Z,93.70
2022-11-24T03:41:14.251Z,93.80
2022-11-24T03:43:44.311Z,94.00
2022-11-24T03:46:13.775Z,94.10
2022-11-24T03:48:42.717Z,94.30
2022-11-24T03:51:11.442Z,94.40
2022-11-24T03:53:39.929Z,94.40
2022-11-24T03:56:10.252Z,94.40
2022-11-24T03:58:57.404Z,94.40
2022-11-24T04:01:26.032Z,94.50
2022-11-24T04:04:14.065Z,94.70
2022-11-24T04:06:42.793Z,94.80
2022-11-24T04:09:11.475Z,95.10
2022-11-24T04:11:58.892Z,95.20
2022-11-24T04:14:27.557Z,95.40
2022-11-24T04:16:56.114Z,95.50
2022-11-24T04:19:24.711Z,95.50
2022-11-24T04:21:53.299Z,95.60
2022-11-24T04:24:21.849Z,95.60
2022-11-24T04:26:51.880Z,95.60
2022-11-24T04:29:20.286Z,95.60
2022-11-24T04:31:48.866Z,95.80
2022-11-24T04:34:17.603Z,95.80
2022-11-24T04:36:46.003Z,95.90
2022-11-24T04:39:25.933Z,96.00
2022-11-24T04:41:58.144Z,96.10
2022-11-24T04:44:27.001Z,96.20
2022-11-24T04:46:55.583Z,96.30
2022-11-24T04:49:24.362Z,96.40
2022-11-24T04:51:52.804Z,96.40
2022-11-24T04:54:21.339Z,96.70
2022-11-24T04:56:51.990Z,96.50
2022-11-24T04:59:22.006Z,96.60
2022-11-24T05:01:50.769Z,96.60
2022-11-24T05:04:20.537Z,96.70
2022-11-24T05:06:49.377Z,96.70
2022-11-24T05:09:18.819Z,96.80
2022-11-24T05:11:46.276Z,97.00
2022-11-24T05:14:14.801Z,97.10
2022-11-24T05:16:44.737Z,97.20
2022-11-24T05:19:13.378Z,97.40
2022-11-24T05:21:42.028Z,97.50
2022-11-24T05:24:11.464Z,97.60
2022-11-24T05:26:40.082Z,98.00
2022-11-24T05:29:08.668Z,97.80
2022-11-24T05:31:38.432Z,98.00
2022-11-24T05:34:08.468Z,98.10
2022-11-24T05:36:55.376Z,98.10
2022-11-24T05:39:24.221Z,98.20
2022-11-24T05:41:52.877Z,98.40
2022-11-24T05:44:21.790Z,98.50
2022-11-24T05:46:50.498Z,98.60
2022-11-24T05:49:20.424Z,98.80
2022-11-24T05:51:48.966Z,99.10
2022-11-24T05:54:17.811Z,99.20
2022-11-24T05:56:46.305Z,99.40
2022-11-24T05:59:14.790Z,99.50
2022-11-24T06:01:43.514Z,99.90
2022-11-24T06:04:12.120Z,99.80
2022-11-24T06:06:42.054Z,99.90
2022-11-24T06:09:10.912Z,99.90
2022-11-24T06:11:39.511Z,99.90
2022-11-24T06:14:11.170Z,99.90
2022-11-24T06:16:40.300Z,99.90
2022-11-24T06:19:09.157Z,99.90
2022-11-24T06:21:37.831Z,99.90
2022-11-24T06:24:08.497Z,99.90
2022-11-24T06:26:37.109Z,99.90
2022-11-24T06:29:05.660Z,99.90
2022-11-24T06:31:34.459Z,99.90
2022-11-24T06:34:03.047Z,99.90
2022-11-24T06:36:31.688Z,99.90
2022-11-24T06:39:02.342Z,99.90
2022-11-24T06:41:32.347Z,99.90
2022-11-24T06:44:03.507Z,99.90
2022-11-24T06:46:32.168Z,99.90
2022-11-24T06:49:01.009Z,99.90
2022-11-24T06:51:29.521Z,99.90
2022-11-24T06:53:57.993Z,99.90
2022-11-24T06:56:26.720Z,99.90
2022-11-24T06:58:56.723Z,99.90
2022-11-24T07:01:26.410Z,99.90
2022-11-24T07:03:55.435Z,99.90
2022-11-24T07:06:24.784Z,99.90
2022-11-24T07:08:53.357Z,99.90
2022-11-24T07:11:23.243Z,99.90
2022-11-24T07:13:56.685Z,99.90
2022-11-24T07:16:30.027Z,99.90
2022-11-24T07:18:58.597Z,99.90
2022-11-24T07:21:27.750Z,99.90
2022-11-24T07:23:57.155Z,99.90
2022-11-24T07:26:25.912Z,99.90
2022-11-24T07:28:54.354Z,99.90
2022-11-24T07:31:25.295Z,99.90
2022-11-24T07:33:57.127Z,99.90
2022-11-24T07:36:25.746Z,99.90
2022-11-24T07:38:54.359Z,99.90
2022-11-24T07:41:22.871Z,99.90
2022-11-24T07:43:51.872Z,99.90
2022-11-24T07:46:21.069Z,99.90
2022-11-24T07:48:49.723Z,99.90
2022-11-24T07:51:19.741Z,99.90
2022-11-24T07:53:48.783Z,99.90
2022-11-24T07:56:17.377Z,99.90
2022-11-24T07:58:49.715Z,99.90
2022-11-24T08:01:21.522Z,99.90
2022-11-24T08:03:50.394Z,99.90
2022-11-24T08:06:27.242Z,99.90
2022-11-24T08:08:57.825Z,99.90
2022-11-24T08:11:26.564Z,99.90
2022-11-24T08:13:55.323Z,99.90
2022-11-24T08:16:24.898Z,99.90
2022-11-24T08:18:54.116Z,99.90
2022-11-24T08:21:24.391Z,99.90
2022-11-24T08:23:55.500Z,99.90
2022-11-24T08:26:25.260Z,99.90
2022-11-24T08:28:55.474Z,99.90
2022-11-24T08:31:25.075Z,99.90
2022-11-24T08:33:53.630Z,99.90
2022-11-24T08:36:23.600Z,99.90
2022-11-24T08:38:55.828Z,99.90
2022-11-24T08:41:24.878Z,99.90
2022-11-24T08:43:53.412Z,99.90
2022-11-24T08:46:22.069Z,99.90
2022-11-24T08:48:51.201Z,99.90
2022-11-24T08:51:21.224Z,99.90
2022-11-24T08:53:55.324Z,99.90
2022-11-24T08:56:24.041Z,99.90
2022-11-24T08:58:52.675Z,99.90
2022-11-24T09:01:21.362Z,99.90
2022-11-24T09:03:51.418Z,99.50
2022-11-24T09:06:23.100Z,99.20
2022-11-24T09:08:53.608Z,99.00
2022-11-24T09:11:22.550Z,98.90
2022-11-24T09:13:51.185Z,98.80
2022-11-24T09:16:20.702Z,98.60
2022-11-24T09:18:49.534Z,98.50
2022-11-24T09:21:19.652Z,98.30
2022-11-24T09:23:49.795Z,98.30
2022-11-24T09:26:20.891Z,98.20
2022-11-24T09:28:50.411Z,98.10
2022-11-24T09:31:19.316Z,97.90
2022-11-24T09:33:47.991Z,97.80
2022-11-24T09:36:16.748Z,97.60
2022-11-24T09:38:45.377Z,97.50
2022-11-24T09:41:22.676Z,97.20
2022-11-24T09:43:53.737Z,97.20
2022-11-24T09:46:24.705Z,97.00
2022-11-24T09:48:55.722Z,96.80
2022-11-24T09:51:26.080Z,96.60
2022-11-24T09:53:56.532Z,96.40
2022-11-24T09:56:27.768Z,96.40
2022-11-24T09:59:00.626Z,96.40
2022-11-24T10:01:30.991Z,96.20
2022-11-24T10:04:05.576Z,96.20
2022-11-24T10:06:39.746Z,96.00
2022-11-24T10:09:15.005Z,95.80
2022-11-24T10:11:48.225Z,95.70
2022-11-24T10:14:27.616Z,95.80
2022-11-24T10:16:58.841Z,95.30
2022-11-24T10:19:37.254Z,95.10
2022-11-24T10:22:14.963Z,95.10
2022-11-24T10:24:56.435Z,95.00
2022-11-24T10:27:30.100Z,94.60
2022-11-24T10:29:58.950Z,94.60
2022-11-24T10:32:29.544Z,94.60
2022-11-24T10:35:01.881Z,94.70
2022-11-24T10:37:35.395Z,94.80
2022-11-24T10:40:32.987Z,94.90
2022-11-24T10:43:01.159Z,94.90
2022-11-24T10:45:30.212Z,94.80
2022-11-24T10:47:59.628Z,94.70
2022-11-24T10:50:28.764Z,94.60
2022-11-24T10:53:02.024Z,94.60
2022-11-24T10:55:45.364Z,94.50
2022-11-24T10:58:18.042Z,94.10
2022-11-24T11:00:46.816Z,93.70
2022-11-24T11:03:19.960Z,93.40
2022-11-24T11:05:50.660Z,93.00
2022-11-24T11:08:21.309Z,92.80
2022-11-24T11:10:50.615Z,92.70
2022-11-24T11:13:27.697Z,92.70
2022-11-24T11:16:20.508Z,92.00
2022-11-24T11:18:50.208Z,91.80
2022-11-24T11:21:28.556Z,91.50
2022-11-24T11:23:57.123Z,91.30
2022-11-24T11:26:36.290Z,91.30
2022-11-24T11:34:55.779Z,91.10
2022-11-24T11:37:26.844Z,90.70
2022-11-24T11:39:55.957Z,90.20
2022-11-24T11:43:00.138Z,89.40
2022-11-24T11:45:17.907Z,89.00
2022-11-24T11:47:47.840Z,88.50
2022-11-24T11:50:17.856Z,88.30
2022-11-24T11:53:01.184Z,86.70
2022-11-24T11:55:49.510Z,85.90
2022-11-24T11:58:39.354Z,86.20
2022-11-24T12:01:14.751Z,86.60
2022-11-24T12:03:51.883Z,86.40
2022-11-24T12:06:27.937Z,86.70
2022-11-24T12:09:19.956Z,87.20
2022-11-24T12:11:54.846Z,87.90
2022-11-24T12:14:27.514Z,88.70
2022-11-24T12:17:02.957Z,89.30
2022-11-24T12:19:49.115Z,89.90
2022-11-24T12:22:23.276Z,90.10
2022-11-24T12:24:56.320Z,90.20
2022-11-24T12:27:29.137Z,90.20
2022-11-24T12:30:11.262Z,90.50
2022-11-24T12:33:11.759Z,90.80
2022-11-24T12:35:41.851Z,90.90
2022-11-24T12:38:21.187Z,91.10
2022-11-24T12:41:18.230Z,91.40
2022-11-24T12:43:50.987Z,91.70
2022-11-24T12:46:21.137Z,92.00
2022-11-24T12:48:57.201Z,92.30
2022-11-24T12:51:29.165Z,92.50
2022-11-24T12:53:59.006Z,92.70
2022-11-24T12:56:30.554Z,92.90
2022-11-24T12:59:04.627Z,93.10
2022-11-24T13:01:37.509Z,93.30
2022-11-24T13:04:14.087Z,93.30
2022-11-24T13:06:49.807Z,93.30
2022-11-24T13:09:18.682Z,93.40
2022-11-24T13:11:47.811Z,93.40
2022-11-24T13:14:17.771Z,93.60
2022-11-24T13:19:46.643Z,93.70
2022-11-24T13:22:16.574Z,93.70
2022-11-24T13:24:46.187Z,93.80
2022-11-24T13:27:40.476Z,93.80
2022-11-24T13:30:23.948Z,93.90
2022-11-24T13:33:03.081Z,94.00
2022-11-24T13:35:37.551Z,94.10
2022-11-24T13:38:26.514Z,94.30
2022-11-24T13:41:13.295Z,94.60
2022-11-24T13:44:07.276Z,94.80
2022-11-24T13:46:56.641Z,95.00
2022-11-24T13:49:38.759Z,95.10
2022-11-24T13:52:31.067Z,95.40
2022-11-24T13:55:01.576Z,95.60
2022-11-24T13:57:33.950Z,95.70
2022-11-24T14:00:02.982Z,95.80
2022-11-24T14:02:34.833Z,96.10
2022-11-24T14:05:03.579Z,96.30
2022-11-24T14:07:33.106Z,96.40
2022-11-24T14:10:03.859Z,96.70
2022-11-24T14:12:34.035Z,96.60
2022-11-24T14:15:22.751Z,96.40
2022-11-24T14:17:51.583Z,96.30
2022-11-24T14:20:23.543Z,96.30
2022-11-24T14:22:52.311Z,96.20
2022-11-24T14:25:28.136Z,96.00
2022-11-24T14:27:57.093Z,95.70
2022-11-24T14:30:26.413Z,95.40
2022-11-24T14:32:55.609Z,95.30
2022-11-24T14:35:25.110Z,95.10
2022-11-24T14:37:53.696Z,94.70
2022-11-24T14:40:42.661Z,94.70
2022-11-24T14:43:18.685Z,94.80
2022-11-24T14:46:07.559Z,94.80
2022-11-24T14:48:38.020Z,94.90
2022-11-24T14:51:08.884Z,95.00
2022-11-24T14:53:37.964Z,95.00
2022-11-24T14:56:22.830Z,95.10
2022-11-24T14:58:51.309Z,95.10
2022-11-24T15:01:21.407Z,95.10
2022-11-24T15:04:17.926Z,95.10
2022-11-24T15:07:14.668Z,95.20
2022-11-24T15:09:51.438Z,95.30
2022-11-24T15:12:28.916Z,95.60
2022-11-24T15:14:59.405Z,95.60
2022-11-24T15:17:28.811Z,95.60
2022-11-24T15:19:59.072Z,95.60
2022-11-24T15:22:45.370Z,95.50
2022-11-24T15:25:30.585Z,95.50
2022-11-24T15:28:00.700Z,95.50
2022-11-24T15:30:36.297Z,95.60
2022-11-24T15:33:05.243Z,95.70
2022-11-24T15:35:34.234Z,95.70
2022-11-24T15:38:02.997Z,95.80
2022-11-24T15:40:32.061Z,95.90
2022-11-24T15:43:06.277Z,96.20
2022-11-24T15:45:35.762Z,96.20
2022-11-24T15:48:04.191Z,96.30
2022-11-24T15:50:32.788Z,96.40
2022-11-24T15:53:01.585Z,96.60
2022-11-24T15:55:30.105Z,96.70
2022-11-24T15:57:58.653Z,96.90
2022-11-24T16:00:28.867Z,97.00
2022-11-24T16:02:57.415Z,97.20
2022-11-24T16:05:27.483Z,97.30
2022-11-24T16:07:58.380Z,97.40
2022-11-24T16:10:29.127Z,97.50
2022-11-24T16:12:57.876Z,97.50
2022-11-24T16:15:26.438Z,97.80
2022-11-24T16:17:56.583Z,97.90
2022-11-24T16:20:25.376Z,98.00
2022-11-24T16:22:54.857Z,98.20
2022-11-24T16:25:24.176Z,98.30
2022-11-24T16:28:11.759Z,98.30
2022-11-24T16:30:40.383Z,98.50
2022-11-24T16:33:11.088Z,98.60
2022-11-24T16:35:39.603Z,98.80
2022-11-24T16:38:08.258Z,98.90
2022-11-24T16:40:37.268Z,98.90
2022-11-24T16:43:05.871Z,99.10
2022-11-24T16:45:34.393Z,99.10
2022-11-24T16:48:03.249Z,99.30
2022-11-24T16:50:33.186Z,99.50
2022-11-24T16:53:01.829Z,99.70
2022-11-24T16:55:30.339Z,99.90
2022-11-24T16:57:58.781Z,99.90
2022-11-24T17:00:27.500Z,99.90
2022-11-24T17:02:56.103Z,99.90
2022-11-24T17:05:24.746Z,99.90
2022-11-24T17:07:55.006Z,99.90
2022-11-24T17:10:23.615Z,99.90
2022-11-24T17:12:52.120Z,99.90
2022-11-24T17:15:42.833Z,99.90
2022-11-24T17:18:23.977Z,99.90
2022-11-24T17:21:13.643Z,99.90
2022-11-24T17:23:43.647Z,99.90
2022-11-24T17:26:13.195Z,99.90
2022-11-24T17:28:42.399Z,99.90
2022-11-24T17:31:11.547Z,99.90
2022-11-24T17:33:40.226Z,99.90
2022-11-24T17:36:08.992Z,99.90
2022-11-24T17:38:37.850Z,99.90
2022-11-24T17:41:08.309Z,99.90
2022-11-24T17:43:36.928Z,99.90
2022-11-24T17:46:05.813Z,99.90
2022-11-24T17:48:37.443Z,99.90
2022-11-24T17:51:08.059Z,99.90
2022-11-24T17:53:37.671Z,99.90
2022-11-24T17:56:08.420Z,99.90
2022-11-24T17:58:42.703Z,99.90
2022-11-24T18:01:12.484Z,99.90
2022-11-24T18:03:41.494Z,99.90
2022-11-24T18:06:11.292Z,99.90
2022-11-24T18:08:41.158Z,99.90
2022-11-24T18:11:13.243Z,99.90
2022-11-24T18:13:58.287Z,99.90
2022-11-24T18:16:30.548Z,99.90
2022-11-24T18:19:18.045Z,99.90
2022-11-24T18:21:46.784Z,99.90
2022-11-24T18:24:18.548Z,99.90
2022-11-24T18:26:52.595Z,99.90
2022-11-24T18:29:21.789Z,99.90
2022-11-24T18:31:50.355Z,99.90
2022-11-24T18:34:19.503Z,99.90
2022-11-24T18:36:52.336Z,99.90
2022-11-24T18:39:20.986Z,99.90
2022-11-24T18:41:49.704Z,99.90
2022-11-24T18:44:19.881Z,99.90
2022-11-24T18:46:49.820Z,99.90
2022-11-24T18:49:18.550Z,99.90
2022-11-24T18:51:47.173Z,99.90
2022-11-24T18:54:15.675Z,99.90
2022-11-24T18:56:44.271Z,99.90
2022-11-24T18:59:12.755Z,99.90
2022-11-24T19:01:42.745Z,99.90
2022-11-24T19:04:13.865Z,99.90
2022-11-24T19:06:43.214Z,99.90
2022-11-24T19:09:13.340Z,99.90
2022-11-24T19:11:42.777Z,99.90
2022-11-24T19:14:13.768Z,99.90
2022-11-24T19:17:04.041Z,99.90
2022-11-24T19:19:34.620Z,99.90
2022-11-24T19:22:03.491Z,99.90
2022-11-24T19:24:32.106Z,99.90
2022-11-24T19:27:01.042Z,99.90
2022-11-24T19:29:30.903Z,99.90
2022-11-24T19:31:59.872Z,99.90
2022-11-24T19:34:30.074Z,99.90
2022-11-24T19:36:59.635Z,99.90
2022-11-24T19:39:28.247Z,99.90
2022-11-24T19:41:56.790Z,99.90
2022-11-24T19:44:25.495Z,99.90
2022-11-24T19:46:54.084Z,99.90
2022-11-24T19:49:22.732Z,99.90
2022-11-24T19:51:52.831Z,99.90
2022-11-24T19:54:21.513Z,99.90
2022-11-24T19:56:49.999Z,99.90
2022-11-24T19:59:18.875Z,99.90
2022-11-24T20:01:47.525Z,99.90
2022-11-24T20:04:16.774Z,99.90
2022-11-24T20:06:45.953Z,99.90
2022-11-24T20:09:16.892Z,99.90
2022-11-24T20:11:45.644Z,99.90
2022-11-24T20:14:14.890Z,99.90
2022-11-24T20:16:46.088Z,99.90
2022-11-24T20:19:15.632Z,99.90
2022-11-24T20:21:46.822Z,99.90
2022-11-24T20:24:17.529Z,99.90
2022-11-24T20:26:48.123Z,99.90
2022-11-24T20:29:17.820Z,99.90
2022-11-24T20:31:47.893Z,99.90
2022-11-24T20:34:21.305Z,99.90
2022-11-24T20:36:50.467Z,99.90
2022-11-24T20:39:21.596Z,99.90
2022-11-24T20:41:50.420Z,99.90
2022-11-24T20:44:21.497Z,99.90
2022-11-24T20:46:50.469Z,99.90
2022-11-24T20:49:20.469Z,99.90
2022-11-24T20:51:49.139Z,99.90
2022-11-24T20:54:18.567Z,99.90
2022-11-24T20:56:49.024Z,99.90
2022-11-24T20:59:18.509Z,99.90
2022-11-24T21:01:47.986Z,99.90
2022-11-24T21:04:18.200Z,99.90
2022-11-24T21:06:47.351Z,99.90
2022-11-24T21:09:16.003Z,99.90
2022-11-24T21:11:44.652Z,99.90
2022-11-24T21:14:15.379Z,99.90
2022-11-24T21:16:44.303Z,99.90
2022-11-24T21:19:14.224Z,99.90
2022-11-24T21:21:43.267Z,99.90
2022-11-24T21:24:12.979Z,99.90
2022-11-24T21:26:42.043Z,99.90
2022-11-24T21:29:12.969Z,99.90
2022-11-24T21:31:43.469Z,99.90
2022-11-24T21:34:15.556Z,99.90
2022-11-24T21:36:45.298Z,99.90
2022-11-24T21:39:14.717Z,99.90
2022-11-24T21:41:43.416Z,99.90
2022-11-24T21:44:12.421Z,99.90
2022-11-24T21:46:48.301Z,99.90
2022-11-24T21:49:19.668Z,99.90
2022-11-24T21:51:49.975Z,99.90
2022-11-24T21:54:18.542Z,99.90
2022-11-24T21:56:47.249Z,99.90
2022-11-24T21:59:15.774Z,99.90
2022-11-24T22:01:45.740Z,99.90
2022-11-24T22:04:14.319Z,99.90
2022-11-24T22:06:43.002Z,99.90
2022-11-24T22:09:16.406Z,99.90
2022-11-24T22:11:46.669Z,99.90
2022-11-24T22:14:15.164Z,99.90
2022-11-24T22:16:43.688Z,99.90
2022-11-24T22:19:13.790Z,99.90
2022-11-24T22:21:42.346Z,99.90
2022-11-24T22:24:10.931Z,99.90
2022-11-24T22:26:39.549Z,99.90
2022-11-24T22:29:08.589Z,99.90
2022-11-24T22:31:37.102Z,99.90
2022-11-24T22:34:05.870Z,99.90
2022-11-24T22:36:37.488Z,99.90
2022-11-24T22:39:07.383Z,99.90
2022-11-24T22:41:36.745Z,99.90
2022-11-24T22:44:05.545Z,99.90
2022-11-24T22:46:34.417Z,99.90
2022-11-24T22:49:03.368Z,99.90
2022-11-24T22:51:33.117Z,99.90
2022-11-24T22:54:04.007Z,99.90
2022-11-24T22:56:33.194Z,99.90
2022-11-24T22:59:02.147Z,99.90
2022-11-24T23:01:31.461Z,99.90
2022-11-24T23:04:00.016Z,99.90
2022-11-24T23:06:30.387Z,99.90
2022-11-24T23:08:59.344Z,99.90
2022-11-24T23:11:36.376Z,99.90
2022-11-24T23:14:06.826Z,99.90
2022-11-24T23:16:35.517Z,99.90
2022-11-24T23:19:04.133Z,99.90
2022-11-24T23:21:33.804Z,99.90
2022-11-24T23:24:03.308Z,99.90
2022-11-24T23:26:34.575Z,99.90
2022-11-24T23:29:03.535Z,99.90
2022-11-24T23:31:32.731Z,99.90
2022-11-24T23:34:02.182Z,99.90
2022-11-24T23:36:31.347Z,99.90
2022-11-24T23:39:03.197Z,99.90
2022-11-24T23:41:32.435Z,99.90
2022-11-24T23:44:02.273Z,99.90
2022-11-24T23:46:30.825Z,99.90
2022-11-24T23:48:59.532Z,99.90
2022-11-24T23:51:28.848Z,99.90
2022-11-24T23:53:57.623Z,99.90
2022-11-24T23:56:26.841Z,99.90
2022-11-24T23:58:55.280Z,99.90
